Friendswood, TX

01:48 CDT le 03 septembre 2015 (GMT -0500)
Clover | | Change Station
CLOSE
Current Station
Aéroport
Location: Houston Clover,
Altitude: 43 ft
Stations météo à proximité

Alt. 43 ft 29.52 °N, 95.24 °W | Updated 43 minutes ago

Partiellement nuageux
Partiellement nuageux
78 ° F
Paraît 78 ° F
N
0
Vent Variable Vent de Nord

Aujourd'hui
Haut(e) -- | Bas -- ° F
--% Risque de précip.
Hier
Haut(e) -- | Bas -- ° F
Precip. -- pouce
6:59 AM 7:40 PM
Lune gibbeuse décroissante, 73% visible
Pression 29.96 pouce
Visibilité 10.0 Miles terrestres
Nuages Nuages épars 2100 ft
Nuages épars 3100 ft
Point de rosée 74 ° F
Humidité 87%
Précipitations 0.00 pouce
Profondeur de la couche neigeuse Non disponible.
UV 0 sur 12
Pollen 5.70 sur 12
Qualité de l'air Non disponible.
Flu Activity Non disponible.
SPECI KLVJ 030605Z AUTO 00000KT 10SM SCT021 SCT031 26/23 A2996 RMK AO2 T02560233
Pression 29.96 pouce
Visibilité 10.0 Miles terrestres
Nuages Nuages épars 2100 ft
Nuages épars 3100 ft
Point de rosée 74 ° F
Humidité 87%
Précipitations 0.00 pouce
Profondeur de la couche neigeuse Non disponible.
UV 0 sur 12
Pollen 5.70 sur 12
Qualité de l'air Non disponible.
Flu Activity Non disponible.
SPECI KLVJ 030605Z AUTO 00000KT 10SM SCT021 SCT031 26/23 A2996 RMK AO2 T02560233

10-Day Weather Forecast

×

Almanac

Astronomie

Sep. 03, 2015 Lever Coucher
Temps réel
Crépuscule civil
Crépuscule nautique
Crépuscule astronomique
Lune
Durée de lumière visible
Longueur du jour
Tomorrow will be .
, % of the Moon is Illuminated

Extrêmes aujourd'hui

State Highs State Lows

Community

WunderPhotos

Upload Photos

1,851,913 Photos téléchargées !

WunderBlogs® & News

Nearby

Qualité de l'air

  Qualité de l'air Indice de la qualité de l'air Polluant
Not available.

Épaisseur de neige

Station Depth Altitude

Activité sismique

Ville Distance Mag. Time & Date
Minimum magnitude displayed is 2.5.

Températures des eaux côtières

Lieu Température

Stations

Stations météo à proximité

Emplacement de la station Température Refroidissement éolien Point de rosée Humidité Vent Precip. Alt. Mise à jour Type